createdAt,value
2019-04-30T00:00:59.409Z,0.00
2019-04-30T00:01:59.396Z,0.00
2019-04-30T00:02:59.369Z,0.00
2019-04-30T00:03:59.533Z,0.00
2019-04-30T00:04:59.329Z,0.00
2019-04-30T00:05:59.313Z,0.00
2019-04-30T00:06:59.295Z,0.00
2019-04-30T00:07:59.273Z,0.00
2019-04-30T00:08:59.255Z,0.00
2019-04-30T00:09:59.236Z,0.00
2019-04-30T00:10:59.217Z,0.00
2019-04-30T00:12:01.299Z,0.00
2019-04-30T00:12:59.178Z,0.00
2019-04-30T00:13:59.159Z,0.00
2019-04-30T00:14:59.140Z,0.00
2019-04-30T00:16:01.619Z,0.00
2019-04-30T00:16:59.104Z,0.00
2019-04-30T00:18:01.877Z,0.00
2019-04-30T00:19:00.907Z,0.00
2019-04-30T00:20:00.098Z,0.00
2019-04-30T00:20:59.024Z,0.00
2019-04-30T00:22:00.445Z,0.00
2019-04-30T00:22:58.987Z,0.00
2019-04-30T00:24:00.757Z,0.00
2019-04-30T00:24:58.950Z,0.00
2019-04-30T00:26:04.997Z,0.00
2019-04-30T00:26:58.910Z,0.00
2019-04-30T00:28:00.344Z,0.00
2019-04-30T00:28:58.873Z,0.00
2019-04-30T00:30:00.255Z,0.00
2019-04-30T00:30:58.834Z,0.00
2019-04-30T00:32:06.691Z,0.00
2019-04-30T00:32:58.795Z,0.00
2019-04-30T00:34:01.366Z,0.00
2019-04-30T00:34:58.758Z,0.00
2019-04-30T00:35:58.736Z,0.00
2019-04-30T00:36:58.719Z,0.00
2019-04-30T00:38:00.201Z,0.00
2019-04-30T00:38:58.679Z,0.00
2019-04-30T00:39:58.659Z,0.00
2019-04-30T00:41:01.960Z,0.00
2019-04-30T00:41:58.623Z,0.00
2019-04-30T00:43:00.201Z,0.00
2019-04-30T00:43:58.585Z,0.00
2019-04-30T00:44:59.633Z,0.00
2019-04-30T00:45:58.545Z,0.00
2019-04-30T00:47:00.678Z,0.00
2019-04-30T00:47:58.507Z,0.00
2019-04-30T00:49:08.779Z,0.00
2019-04-30T00:50:00.324Z,0.00
2019-04-30T00:50:58.449Z,0.00
2019-04-30T00:51:58.429Z,0.00
2019-04-30T00:52:58.422Z,0.00
2019-04-30T00:53:58.401Z,0.00
2019-04-30T00:55:00.465Z,0.00
2019-04-30T00:55:58.351Z,0.00
2019-04-30T00:57:03.799Z,0.00
2019-04-30T00:57:58.313Z,0.00
2019-04-30T00:59:02.428Z,0.00
2019-04-30T00:59:58.274Z,0.00
2019-04-30T01:00:59.752Z,0.00
2019-04-30T01:01:58.242Z,0.00
2019-04-30T01:03:00.792Z,0.00
2019-04-30T01:03:58.198Z,0.00
2019-04-30T01:05:05.057Z,0.00
2019-04-30T01:05:58.159Z,0.00
2019-04-30T01:07:00.294Z,0.00
2019-04-30T01:07:58.120Z,0.00
2019-04-30T01:09:04.862Z,0.00
2019-04-30T01:09:58.080Z,0.00
2019-04-30T01:10:59.716Z,0.00
2019-04-30T01:11:58.041Z,0.00
2019-04-30T01:13:01.826Z,0.00
2019-04-30T01:13:59.071Z,0.00
2019-04-30T01:14:59.002Z,0.00
2019-04-30T01:15:58.748Z,0.00
2019-04-30T01:16:59.423Z,0.00
2019-04-30T01:17:59.404Z,0.00
2019-04-30T01:18:58.594Z,0.00
2019-04-30T01:19:59.221Z,0.00
2019-04-30T01:20:58.693Z,0.00
2019-04-30T01:21:59.405Z,0.00
2019-04-30T01:22:58.657Z,0.00
2019-04-30T01:23:59.122Z,0.00
2019-04-30T01:25:01.349Z,0.00
2019-04-30T01:25:58.575Z,0.00
2019-04-30T01:27:00.747Z,0.00
2019-04-30T01:27:58.571Z,0.00
2019-04-30T01:29:01.754Z,0.00
2019-04-30T01:29:58.517Z,0.00
2019-04-30T01:30:58.804Z,0.00
2019-04-30T01:31:58.587Z,0.00
2019-04-30T01:32:58.812Z,0.00
2019-04-30T01:33:58.976Z,0.00
2019-04-30T01:34:58.971Z,0.00
2019-04-30T01:35:59.530Z,0.00
2019-04-30T01:36:58.978Z,0.00
2019-04-30T01:37:59.449Z,0.00
2019-04-30T01:38:59.252Z,0.00
2019-04-30T01:39:58.940Z,0.00
2019-04-30T01:40:59.487Z,0.00
2019-04-30T01:41:58.702Z,0.00
2019-04-30T01:42:59.201Z,0.00
2019-04-30T01:43:58.518Z,0.00
2019-04-30T01:44:58.963Z,0.00
2019-04-30T01:46:01.987Z,0.00
2019-04-30T01:46:58.832Z,0.00
2019-04-30T01:48:00.659Z,0.00
2019-04-30T01:48:58.834Z,0.00
2019-04-30T01:50:02.502Z,0.00
2019-04-30T01:50:58.631Z,0.00
2019-04-30T01:51:58.615Z,0.00
2019-04-30T01:52:59.031Z,0.00
2019-04-30T01:53:57.225Z,0.00
2019-04-30T01:54:58.647Z,0.00
2019-04-30T01:55:59.081Z,0.00
2019-04-30T01:56:57.167Z,0.00
2019-04-30T01:57:59.073Z,0.00
2019-04-30T01:58:57.128Z,0.00
2019-04-30T01:59:58.281Z,0.00
2019-04-30T02:00:59.242Z,0.00
2019-04-30T02:01:58.573Z,0.00
2019-04-30T02:02:59.160Z,0.00
2019-04-30T02:03:58.561Z,0.00
2019-04-30T02:04:59.017Z,0.00
2019-04-30T02:05:56.990Z,0.00
2019-04-30T02:06:56.971Z,0.00
2019-04-30T02:07:58.489Z,0.00
2019-04-30T02:08:56.937Z,0.00
2019-04-30T02:09:58.356Z,0.00
2019-04-30T02:10:59.262Z,0.00
2019-04-30T02:11:56.873Z,0.00
2019-04-30T02:12:56.853Z,0.00
2019-04-30T02:13:56.834Z,0.00
2019-04-30T02:14:56.814Z,0.00
2019-04-30T02:15:58.867Z,0.00
2019-04-30T02:16:56.777Z,0.00
2019-04-30T02:17:58.291Z,0.00
2019-04-30T02:18:56.737Z,0.00
2019-04-30T02:19:57.366Z,0.00
2019-04-30T02:20:56.695Z,0.00
2019-04-30T02:21:58.503Z,0.00
2019-04-30T02:22:58.451Z,0.00
2019-04-30T02:23:56.635Z,0.00
2019-04-30T02:24:58.496Z,0.00
2019-04-30T02:25:56.598Z,0.00
2019-04-30T02:26:56.579Z,0.00
2019-04-30T02:27:56.558Z,0.00
2019-04-30T02:28:56.538Z,0.00
2019-04-30T02:29:56.520Z,0.00
2019-04-30T02:30:56.500Z,0.00
2019-04-30T02:31:56.480Z,0.00
2019-04-30T02:32:56.461Z,0.00
2019-04-30T02:33:56.440Z,0.00
2019-04-30T02:34:56.421Z,0.00
2019-04-30T02:35:56.402Z,0.00
2019-04-30T02:36:56.380Z,0.00
2019-04-30T02:37:56.362Z,0.00
2019-04-30T02:38:59.072Z,0.00
2019-04-30T02:39:56.326Z,0.00
2019-04-30T02:40:56.305Z,0.00
2019-04-30T02:41:56.284Z,0.00
2019-04-30T02:42:58.064Z,0.00
2019-04-30T02:43:56.243Z,0.00
2019-04-30T02:44:56.224Z,0.00
2019-04-30T02:45:56.203Z,0.00
2019-04-30T02:46:56.182Z,0.00
2019-04-30T02:47:56.162Z,0.00
2019-04-30T02:48:56.147Z,0.00
2019-04-30T02:50:11.561Z,0.00
2019-04-30T02:50:56.103Z,0.00
2019-04-30T02:51:56.085Z,0.00
2019-04-30T02:52:56.062Z,0.00
2019-04-30T02:53:56.043Z,0.00
2019-04-30T02:54:56.022Z,0.00
2019-04-30T02:55:56.002Z,0.00
2019-04-30T02:56:55.984Z,0.00
2019-04-30T02:57:55.962Z,0.00
2019-04-30T02:58:55.942Z,0.00
2019-04-30T02:59:55.926Z,0.00
2019-04-30T03:00:55.903Z,0.00
2019-04-30T03:01:55.889Z,0.00
2019-04-30T03:02:55.862Z,0.00
2019-04-30T03:03:55.840Z,0.00
2019-04-30T03:04:55.822Z,0.00
2019-04-30T03:05:55.801Z,0.00
2019-04-30T03:06:55.794Z,0.00
2019-04-30T03:07:55.786Z,0.00
2019-04-30T03:08:55.740Z,0.00
2019-04-30T03:09:55.722Z,0.00
2019-04-30T03:10:55.704Z,0.00
2019-04-30T03:11:55.679Z,0.00
2019-04-30T03:12:55.687Z,0.00
2019-04-30T03:13:55.649Z,0.00
2019-04-30T03:14:55.623Z,0.00
2019-04-30T03:15:55.601Z,0.00
2019-04-30T03:16:55.578Z,0.00
2019-04-30T03:17:55.560Z,0.00
2019-04-30T03:18:55.538Z,0.00
2019-04-30T03:19:55.517Z,0.00
2019-04-30T03:20:55.498Z,0.00
2019-04-30T03:21:55.477Z,0.00
2019-04-30T03:22:55.464Z,0.00
2019-04-30T03:23:55.438Z,0.00
2019-04-30T03:24:55.421Z,0.00
2019-04-30T03:25:55.412Z,0.00
2019-04-30T03:26:55.377Z,0.00
2019-04-30T03:27:55.356Z,0.00
2019-04-30T03:28:55.337Z,0.00
2019-04-30T03:29:55.324Z,0.00
2019-04-30T03:30:57.491Z,0.00
2019-04-30T03:31:55.313Z,0.00
2019-04-30T03:32:57.028Z,0.00
2019-04-30T03:33:55.235Z,0.00
2019-04-30T03:34:55.216Z,0.00
2019-04-30T03:35:55.663Z,0.00
2019-04-30T03:36:55.172Z,0.00
2019-04-30T03:37:55.153Z,0.00
2019-04-30T03:38:55.141Z,0.00
2019-04-30T03:39:55.112Z,0.00
2019-04-30T03:40:55.092Z,0.00
2019-04-30T03:41:55.072Z,0.00
2019-04-30T03:42:55.054Z,4.00
2019-04-30T03:43:55.030Z,4.00
2019-04-30T03:44:55.009Z,0.00
2019-04-30T03:45:54.993Z,0.00
2019-04-30T03:46:54.969Z,4.00
2019-04-30T03:47:54.949Z,4.00
2019-04-30T03:48:54.929Z,4.00
2019-04-30T03:49:54.909Z,4.00
2019-04-30T03:50:57.073Z,4.00
2019-04-30T03:51:54.873Z,8.00
2019-04-30T03:52:54.845Z,8.00
2019-04-30T03:53:54.824Z,8.00
2019-04-30T03:54:54.804Z,8.00
2019-04-30T03:55:54.783Z,8.00
2019-04-30T03:56:54.766Z,12.00
2019-04-30T03:57:54.743Z,12.00
2019-04-30T03:58:54.722Z,16.00
2019-04-30T03:59:54.702Z,16.00
2019-04-30T04:00:54.682Z,16.00
2019-04-30T04:01:54.659Z,20.00
2019-04-30T04:02:54.641Z,24.00
2019-04-30T04:03:54.620Z,24.00
2019-04-30T04:04:54.599Z,24.00
2019-04-30T04:05:54.578Z,32.00
2019-04-30T04:06:54.557Z,36.00
2019-04-30T04:07:54.537Z,40.00
2019-04-30T04:08:54.517Z,44.00
2019-04-30T04:09:54.494Z,52.00
2019-04-30T04:10:54.475Z,52.00
2019-04-30T04:11:54.476Z,56.00
2019-04-30T04:12:54.433Z,64.00
2019-04-30T04:13:54.415Z,68.00
2019-04-30T04:14:54.393Z,76.00
2019-04-30T04:15:54.373Z,80.00
2019-04-30T04:16:54.350Z,88.00
2019-04-30T04:17:54.331Z,92.00
2019-04-30T04:18:54.312Z,100.00
2019-04-30T04:19:54.289Z,116.00
2019-04-30T04:21:07.424Z,128.00
2019-04-30T04:21:54.248Z,132.00
2019-04-30T04:22:54.228Z,140.00
2019-04-30T04:23:54.206Z,140.00
2019-04-30T04:24:54.201Z,144.00
2019-04-30T04:25:54.167Z,156.00
2019-04-30T04:26:54.146Z,160.00
2019-04-30T04:27:54.126Z,172.00
2019-04-30T04:28:54.105Z,172.00
2019-04-30T04:29:54.086Z,172.00
2019-04-30T04:30:54.067Z,176.00
2019-04-30T04:31:54.046Z,188.00
2019-04-30T04:32:54.022Z,196.00
2019-04-30T04:33:54.003Z,200.00
2019-04-30T04:34:53.989Z,200.00
2019-04-30T04:35:53.973Z,220.00
2019-04-30T04:36:53.941Z,256.00
2019-04-30T04:37:53.924Z,284.00
2019-04-30T04:38:53.901Z,308.00
2019-04-30T04:39:53.880Z,320.00
2019-04-30T04:40:53.858Z,332.00
2019-04-30T04:41:53.839Z,344.00
2019-04-30T04:42:53.818Z,368.00
2019-04-30T04:43:53.803Z,376.00
2019-04-30T04:44:53.779Z,384.00
2019-04-30T04:45:53.757Z,384.00
2019-04-30T04:46:53.737Z,380.00
2019-04-30T04:47:53.716Z,388.00
2019-04-30T04:48:53.698Z,404.00
2019-04-30T04:49:54.147Z,420.00
2019-04-30T04:50:53.655Z,416.00
2019-04-30T04:51:53.634Z,412.00
2019-04-30T04:52:53.612Z,420.00
2019-04-30T04:53:53.602Z,432.00
2019-04-30T04:54:53.574Z,452.00
2019-04-30T04:55:53.555Z,468.00
2019-04-30T04:57:12.784Z,476.00
2019-04-30T04:57:53.513Z,496.00
2019-04-30T04:58:53.493Z,528.00
2019-04-30T04:59:53.469Z,572.00
2019-04-30T05:00:53.450Z,600.00
2019-04-30T05:01:53.430Z,616.00
2019-04-30T05:02:53.410Z,660.00
2019-04-30T05:03:53.387Z,692.00
2019-04-30T05:04:53.370Z,704.00
2019-04-30T05:05:53.349Z,692.00
2019-04-30T05:06:53.328Z,692.00
2019-04-30T05:07:53.307Z,696.00
2019-04-30T05:08:53.288Z,724.00
2019-04-30T05:09:53.304Z,744.00
2019-04-30T05:10:53.246Z,788.00
2019-04-30T05:11:53.229Z,824.00
2019-04-30T05:12:53.207Z,904.00
2019-04-30T05:13:53.186Z,980.00
2019-04-30T05:14:53.165Z,1020.00
2019-04-30T05:15:53.145Z,1060.00
2019-04-30T05:16:53.125Z,1052.00
2019-04-30T05:17:53.105Z,1024.00
2019-04-30T05:18:53.083Z,1068.00
2019-04-30T05:19:53.063Z,1076.00
2019-04-30T05:20:53.047Z,1108.00
2019-04-30T05:21:53.025Z,1184.00
2019-04-30T05:22:53.003Z,1280.00
2019-04-30T05:23:52.982Z,1312.00
2019-04-30T05:24:52.962Z,1332.00
2019-04-30T05:25:52.944Z,1404.00
2019-04-30T05:26:52.928Z,1440.00
2019-04-30T05:27:52.900Z,1440.00
2019-04-30T05:28:53.057Z,1428.00
2019-04-30T05:29:52.862Z,1404.00
2019-04-30T05:30:52.843Z,1448.00
2019-04-30T05:31:52.822Z,1504.00
2019-04-30T05:32:52.801Z,1584.00
2019-04-30T05:33:52.782Z,1588.00
2019-04-30T05:34:52.762Z,1560.00
2019-04-30T05:35:52.742Z,1584.00
2019-04-30T05:36:52.721Z,1664.00
2019-04-30T05:37:52.702Z,1688.00
2019-04-30T05:38:52.681Z,1832.00
2019-04-30T05:39:52.662Z,1872.00
2019-04-30T05:40:52.640Z,1912.00
2019-04-30T05:41:52.621Z,2004.00
2019-04-30T05:42:52.603Z,2072.00
2019-04-30T05:43:52.605Z,2220.00
2019-04-30T05:44:52.560Z,2416.00
2019-04-30T05:45:52.541Z,2492.00
2019-04-30T05:46:52.525Z,2468.00
2019-04-30T05:47:52.500Z,2476.00
2019-04-30T05:48:52.509Z,2560.00
2019-04-30T05:49:52.461Z,2704.00
2019-04-30T05:50:52.441Z,2676.00
2019-04-30T05:51:55.709Z,2604.00
2019-04-30T05:52:52.402Z,2548.00
2019-04-30T05:53:52.381Z,2596.00
2019-04-30T05:54:52.360Z,2572.00
2019-04-30T05:55:52.340Z,2532.00
2019-04-30T05:56:52.322Z,2504.00
2019-04-30T05:57:56.378Z,2656.00
2019-04-30T05:58:52.282Z,2640.00
2019-04-30T05:59:52.260Z,2540.00
2019-04-30T06:00:52.240Z,2520.00
2019-04-30T06:01:52.223Z,2572.00
2019-04-30T06:02:52.201Z,2668.00
2019-04-30T06:03:52.181Z,2708.00
2019-04-30T06:04:52.160Z,2732.00
2019-04-30T06:05:52.142Z,2744.00
2019-04-30T06:06:52.122Z,2780.00
2019-04-30T06:07:52.230Z,2800.00
2019-04-30T06:08:52.082Z,2912.00
2019-04-30T06:09:52.062Z,3064.00
2019-04-30T06:10:52.041Z,3108.00
2019-04-30T06:11:52.029Z,3036.00
2019-04-30T06:12:52.002Z,2988.00
2019-04-30T06:13:51.981Z,3016.00
2019-04-30T06:14:52.037Z,3124.00
2019-04-30T06:15:51.942Z,3324.00
2019-04-30T06:16:51.928Z,3552.00
2019-04-30T06:18:00.754Z,3668.00
2019-04-30T06:18:51.882Z,3568.00
2019-04-30T06:19:51.865Z,3368.00
2019-04-30T06:20:51.843Z,3236.00
2019-04-30T06:21:51.825Z,3272.00
2019-04-30T06:22:52.258Z,3432.00
2019-04-30T06:23:51.784Z,3608.00
2019-04-30T06:24:51.765Z,3792.00
2019-04-30T06:25:59.364Z,3896.00
2019-04-30T06:26:51.726Z,3808.00
2019-04-30T06:27:51.706Z,3664.00
2019-04-30T06:28:51.691Z,3672.00
2019-04-30T06:29:51.667Z,3652.00
2019-04-30T06:30:51.650Z,3788.00
2019-04-30T06:31:51.628Z,4160.00
2019-04-30T06:32:51.610Z,4600.00
2019-04-30T06:33:51.593Z,4560.00
2019-04-30T06:34:51.575Z,4156.00
2019-04-30T06:35:51.549Z,3956.00
2019-04-30T06:36:54.134Z,3944.00
2019-04-30T06:37:51.511Z,4060.00
2019-04-30T06:38:51.492Z,4136.00
2019-04-30T06:39:51.471Z,4192.00
2019-04-30T06:40:51.452Z,4352.00
2019-04-30T06:41:51.433Z,4576.00
2019-04-30T06:42:51.413Z,4760.00
2019-04-30T06:43:51.395Z,5104.00
2019-04-30T06:44:51.375Z,5504.00
2019-04-30T06:45:51.459Z,5712.00
2019-04-30T06:46:51.359Z,5720.00
2019-04-30T06:47:51.316Z,5432.00
2019-04-30T06:48:51.299Z,5172.00
2019-04-30T06:49:51.280Z,5224.00
2019-04-30T06:50:51.260Z,5380.00
2019-04-30T06:51:51.239Z,5284.00
2019-04-30T06:52:56.856Z,5176.00
2019-04-30T06:53:51.437Z,5304.00
2019-04-30T06:54:51.182Z,5464.00
2019-04-30T06:55:51.162Z,5360.00
2019-04-30T06:56:51.147Z,5172.00
2019-04-30T06:57:51.124Z,5168.00
2019-04-30T06:58:52.598Z,5256.00
2019-04-30T06:59:51.635Z,5452.00
2019-04-30T07:00:51.066Z,5672.00
2019-04-30T07:01:51.048Z,5688.00
2019-04-30T07:02:51.029Z,5640.00
2019-04-30T07:03:51.009Z,5744.00
2019-04-30T07:04:50.990Z,5916.00
2019-04-30T07:05:50.972Z,5900.00
2019-04-30T07:06:50.956Z,5688.00
2019-04-30T07:07:53.326Z,5524.00
2019-04-30T07:08:55.705Z,5424.00
2019-04-30T07:09:55.832Z,5520.00
2019-04-30T07:10:55.730Z,5616.00
2019-04-30T07:11:50.921Z,5820.00
2019-04-30T07:12:50.836Z,6188.00
2019-04-30T07:13:52.315Z,6600.00
2019-04-30T07:14:50.798Z,6744.00
2019-04-30T07:15:50.779Z,6512.00
2019-04-30T07:16:50.760Z,6372.00
2019-04-30T07:17:50.746Z,6340.00
2019-04-30T07:18:50.723Z,6352.00
2019-04-30T07:19:56.366Z,6452.00
2019-04-30T07:20:50.684Z,6464.00
2019-04-30T07:21:50.664Z,6452.00
2019-04-30T07:22:59.076Z,6392.00
2019-04-30T07:23:50.626Z,6344.00
2019-04-30T07:24:50.650Z,6228.00
2019-04-30T07:25:51.718Z,6236.00
2019-04-30T07:26:54.721Z,6156.00
2019-04-30T07:27:50.751Z,6180.00
2019-04-30T07:28:54.838Z,6144.00
2019-04-30T07:29:50.513Z,5924.00
2019-04-30T07:31:07.199Z,5708.00
2019-04-30T07:31:51.753Z,5864.00
2019-04-30T07:32:50.456Z,6092.00
2019-04-30T07:33:53.548Z,6460.00
2019-04-30T07:34:50.420Z,6680.00
2019-04-30T07:35:50.402Z,6848.00
2019-04-30T07:37:10.440Z,7084.00
2019-04-30T07:37:54.653Z,7416.00
2019-04-30T07:38:56.122Z,7532.00
2019-04-30T07:39:50.324Z,7252.00
2019-04-30T07:40:50.309Z,7192.00
2019-04-30T07:41:50.287Z,6940.00
2019-04-30T07:42:50.285Z,6896.00
2019-04-30T07:43:50.251Z,7028.00
2019-04-30T07:44:50.425Z,6940.00
2019-04-30T07:45:50.212Z,6652.00
2019-04-30T07:46:50.211Z,6388.00
2019-04-30T07:47:50.176Z,6452.00
2019-04-30T07:48:50.408Z,6476.00
2019-04-30T07:49:55.103Z,6544.00
2019-04-30T07:50:52.050Z,6648.00
2019-04-30T07:51:51.739Z,6760.00
2019-04-30T07:53:01.645Z,6820.00
2019-04-30T07:53:50.070Z,6828.00
2019-04-30T07:54:51.827Z,6800.00
2019-04-30T07:55:50.025Z,6772.00
2019-04-30T07:56:50.728Z,6896.00
2019-04-30T07:57:50.697Z,6944.00
2019-04-30T07:58:50.576Z,6940.00
2019-04-30T07:59:50.074Z,6868.00
2019-04-30T08:00:55.440Z,7080.00
2019-04-30T08:02:06.425Z,7432.00
2019-04-30T08:02:50.449Z,7920.00
2019-04-30T08:03:50.472Z,8268.00
2019-04-30T08:04:51.199Z,8128.00
2019-04-30T08:05:50.085Z,7728.00
2019-04-30T08:06:50.035Z,7740.00
2019-04-30T08:07:49.932Z,8184.00
2019-04-30T08:08:50.763Z,8296.00
2019-04-30T08:09:49.772Z,8024.00
2019-04-30T08:10:51.024Z,8180.00
2019-04-30T08:11:49.729Z,8308.00
2019-04-30T08:12:50.697Z,8356.00
2019-04-30T08:13:50.214Z,8616.00
2019-04-30T08:14:49.737Z,8716.00
2019-04-30T08:15:49.657Z,8468.00
2019-04-30T08:16:51.123Z,8144.00
2019-04-30T08:18:02.328Z,8204.00
2019-04-30T08:18:49.602Z,8712.00
2019-04-30T08:19:49.582Z,8604.00
2019-04-30T08:20:49.567Z,7880.00
2019-04-30T08:21:49.552Z,7424.00
2019-04-30T08:22:49.612Z,7064.00
2019-04-30T08:23:49.511Z,6988.00
2019-04-30T08:24:49.491Z,7444.00
2019-04-30T08:25:49.472Z,7764.00
2019-04-30T08:26:49.474Z,7844.00
2019-04-30T08:27:49.473Z,8028.00
2019-04-30T08:28:49.418Z,8276.00
2019-04-30T08:29:50.066Z,8184.00
2019-04-30T08:30:49.381Z,7900.00
2019-04-30T08:31:49.364Z,7564.00
2019-04-30T08:32:49.921Z,7276.00
2019-04-30T08:33:49.329Z,7092.00
2019-04-30T08:34:50.145Z,7652.00
2019-04-30T08:35:49.878Z,8532.00
2019-04-30T08:36:49.275Z,9284.00
2019-04-30T08:37:49.776Z,10608.00
2019-04-30T08:38:49.583Z,12352.00
2019-04-30T08:39:49.807Z,13528.00
2019-04-30T08:40:56.154Z,13796.00
2019-04-30T08:41:49.343Z,13620.00
2019-04-30T08:42:49.687Z,13700.00
2019-04-30T08:43:49.777Z,13724.00
2019-04-30T08:44:49.158Z,12976.00
2019-04-30T08:45:49.117Z,12508.00
2019-04-30T08:46:49.216Z,12480.00
2019-04-30T08:47:49.472Z,11920.00
2019-04-30T08:48:53.061Z,11900.00
2019-04-30T08:49:50.010Z,12820.00
2019-04-30T08:50:49.665Z,13312.00
2019-04-30T08:51:49.739Z,12416.00
2019-04-30T08:52:49.839Z,11540.00
2019-04-30T08:53:48.970Z,11612.00
2019-04-30T08:54:49.603Z,11032.00
2019-04-30T08:55:49.228Z,10640.00
2019-04-30T08:56:50.351Z,10400.00
2019-04-30T08:57:50.030Z,10712.00
2019-04-30T08:58:49.191Z,11080.00
2019-04-30T08:59:49.455Z,10864.00
2019-04-30T09:00:48.849Z,10896.00
2019-04-30T09:01:48.832Z,11552.00
2019-04-30T09:02:49.275Z,12792.00
2019-04-30T09:03:50.876Z,13296.00
2019-04-30T09:04:49.415Z,13244.00
2019-04-30T09:05:49.898Z,13756.00
2019-04-30T09:06:49.296Z,13832.00
2019-04-30T09:07:48.751Z,13712.00
2019-04-30T09:08:49.046Z,13932.00
2019-04-30T09:09:48.923Z,14160.00
2019-04-30T09:10:49.120Z,14348.00
2019-04-30T09:11:53.058Z,15380.00
2019-04-30T09:12:49.535Z,16768.00
2019-04-30T09:13:48.844Z,17152.00
2019-04-30T09:14:49.026Z,16076.00
2019-04-30T09:15:49.224Z,14924.00
2019-04-30T09:16:49.521Z,14404.00
2019-04-30T09:18:00.746Z,13756.00
2019-04-30T09:18:49.470Z,13316.00
2019-04-30T09:19:49.092Z,13284.00
2019-04-30T09:20:49.534Z,14188.00
2019-04-30T09:21:48.923Z,15392.00
2019-04-30T09:22:49.606Z,16232.00
2019-04-30T09:23:52.378Z,17152.00
2019-04-30T09:24:49.748Z,17152.00
2019-04-30T09:25:49.681Z,17184.00
2019-04-30T09:26:49.305Z,17472.00
2019-04-30T09:27:48.860Z,16672.00
2019-04-30T09:28:49.431Z,14960.00
2019-04-30T09:29:49.232Z,13612.00
2019-04-30T09:30:48.501Z,12880.00
2019-04-30T09:31:49.311Z,12628.00
2019-04-30T09:32:49.957Z,12396.00
2019-04-30T09:33:49.287Z,11784.00
2019-04-30T09:34:48.776Z,11364.00
2019-04-30T09:35:49.561Z,11700.00
2019-04-30T09:36:48.983Z,12492.00
2019-04-30T09:37:49.579Z,12372.00
2019-04-30T09:38:48.554Z,12276.00
2019-04-30T09:39:49.444Z,12892.00
2019-04-30T09:40:48.185Z,14464.00
2019-04-30T09:41:49.617Z,15952.00
2019-04-30T09:42:48.727Z,16704.00
2019-04-30T09:43:49.399Z,16424.00
2019-04-30T09:44:49.239Z,16352.00
2019-04-30T09:45:49.717Z,16472.00
2019-04-30T09:46:48.910Z,16800.00
2019-04-30T09:47:48.072Z,16100.00
2019-04-30T09:48:48.056Z,16016.00
2019-04-30T09:49:49.324Z,15508.00
2019-04-30T09:50:49.756Z,15140.00
2019-04-30T09:51:49.531Z,14820.00
2019-04-30T09:52:49.690Z,14380.00
2019-04-30T09:53:56.722Z,14100.00
2019-04-30T09:54:50.102Z,14164.00
2019-04-30T09:55:49.607Z,14432.00
2019-04-30T09:56:49.598Z,14372.00
2019-04-30T09:57:48.831Z,13672.00
2019-04-30T09:58:49.231Z,13096.00
2019-04-30T09:59:48.650Z,13188.00
2019-04-30T10:00:48.541Z,14244.00
2019-04-30T10:01:47.849Z,15048.00
2019-04-30T10:02:48.885Z,14400.00
2019-04-30T10:03:50.116Z,13376.00
2019-04-30T10:04:48.407Z,11932.00
2019-04-30T10:05:49.125Z,11172.00
2019-04-30T10:06:49.916Z,11404.00
2019-04-30T10:07:49.343Z,11796.00
2019-04-30T10:08:50.963Z,12864.00
2019-04-30T10:09:50.660Z,13440.00
2019-04-30T10:10:48.636Z,13128.00
2019-04-30T10:11:49.916Z,12524.00
2019-04-30T10:12:49.291Z,12420.00
2019-04-30T10:13:47.660Z,12140.00
2019-04-30T10:14:49.462Z,11760.00
2019-04-30T10:15:49.982Z,11768.00
2019-04-30T10:16:49.446Z,11500.00
2019-04-30T10:17:47.596Z,11368.00
2019-04-30T10:18:47.579Z,11048.00
2019-04-30T10:19:49.220Z,10840.00
2019-04-30T10:20:47.550Z,10908.00
2019-04-30T10:21:48.970Z,11436.00
2019-04-30T10:22:49.426Z,13172.00
2019-04-30T10:23:47.501Z,14484.00
2019-04-30T10:24:49.344Z,15412.00
2019-04-30T10:25:47.469Z,15612.00
2019-04-30T10:26:47.451Z,14516.00
2019-04-30T10:27:49.646Z,14292.00
2019-04-30T10:28:47.420Z,14580.00
2019-04-30T10:29:49.195Z,14200.00
2019-04-30T10:30:47.390Z,13356.00
2019-04-30T10:31:48.986Z,12932.00
2019-04-30T10:32:49.944Z,12048.00
2019-04-30T10:33:48.549Z,12028.00
2019-04-30T10:34:47.324Z,12300.00
2019-04-30T10:35:47.308Z,12020.00
2019-04-30T10:36:49.491Z,12236.00
2019-04-30T10:37:48.528Z,12948.00
2019-04-30T10:38:49.215Z,12896.00
2019-04-30T10:39:49.032Z,12696.00
2019-04-30T10:40:48.765Z,11896.00
2019-04-30T10:41:47.213Z,10936.00
2019-04-30T10:42:48.874Z,9784.00
2019-04-30T10:43:48.836Z,9176.00
2019-04-30T10:44:47.166Z,8652.00
2019-04-30T10:45:48.569Z,7892.00
2019-04-30T10:46:47.134Z,7340.00
2019-04-30T10:47:49.117Z,7336.00
2019-04-30T10:48:47.103Z,8424.00
2019-04-30T10:49:48.678Z,9368.00
2019-04-30T10:50:49.089Z,9552.00
2019-04-30T10:51:47.054Z,9428.00
2019-04-30T10:52:49.049Z,9216.00
2019-04-30T10:53:48.647Z,9204.00
2019-04-30T10:54:47.006Z,8976.00
2019-04-30T10:55:48.573Z,8784.00
2019-04-30T10:56:51.110Z,8828.00
2019-04-30T10:57:46.957Z,9028.00
2019-04-30T10:58:46.955Z,9292.00
2019-04-30T10:59:48.623Z,9804.00
2019-04-30T11:00:46.909Z,10388.00
2019-04-30T11:01:46.894Z,10888.00
2019-04-30T11:02:46.876Z,11292.00
2019-04-30T11:03:46.863Z,12560.00
2019-04-30T11:04:46.844Z,13996.00
2019-04-30T11:05:48.695Z,14976.00
2019-04-30T11:06:46.811Z,16096.00
2019-04-30T11:07:46.794Z,16960.00
2019-04-30T11:08:46.779Z,17216.00
2019-04-30T11:09:46.765Z,16140.00
2019-04-30T11:10:46.746Z,15072.00
2019-04-30T11:11:46.730Z,14508.00
2019-04-30T11:12:46.714Z,14484.00
2019-04-30T11:13:46.697Z,14372.00
2019-04-30T11:14:46.682Z,14208.00
2019-04-30T11:15:46.665Z,14812.00
2019-04-30T11:16:46.881Z,14036.00
2019-04-30T11:17:46.849Z,12516.00
2019-04-30T11:18:46.803Z,12140.00
2019-04-30T11:19:47.301Z,11820.00
2019-04-30T11:20:46.818Z,11264.00
2019-04-30T11:21:46.770Z,10940.00
2019-04-30T11:22:46.667Z,11380.00
2019-04-30T11:23:46.720Z,12636.00
2019-04-30T11:24:56.651Z,13660.00
2019-04-30T11:25:47.445Z,13156.00
2019-04-30T11:26:48.903Z,11752.00
2019-04-30T11:27:47.122Z,10928.00
2019-04-30T11:28:46.721Z,10768.00
2019-04-30T11:29:46.635Z,10372.00
2019-04-30T11:30:46.660Z,10428.00
2019-04-30T11:31:46.609Z,10428.00
2019-04-30T11:32:46.655Z,10744.00
2019-04-30T11:33:46.731Z,10984.00
2019-04-30T11:34:46.365Z,11600.00
2019-04-30T11:35:46.347Z,12736.00
2019-04-30T11:36:46.332Z,13108.00
2019-04-30T11:37:46.332Z,12836.00
2019-04-30T11:38:46.304Z,12936.00
2019-04-30T11:39:46.284Z,12984.00
2019-04-30T11:40:46.268Z,12752.00
2019-04-30T11:41:46.253Z,12200.00
2019-04-30T11:42:46.239Z,12388.00
2019-04-30T11:43:46.241Z,12796.00
2019-04-30T11:44:46.206Z,12712.00
2019-04-30T11:45:46.189Z,13272.00
2019-04-30T11:46:46.174Z,14884.00
2019-04-30T11:47:53.351Z,16288.00
2019-04-30T11:48:46.142Z,19168.00
2019-04-30T11:49:46.128Z,22240.00
2019-04-30T11:50:46.111Z,19488.00
2019-04-30T11:51:46.098Z,19936.00
2019-04-30T11:52:46.079Z,20800.00
2019-04-30T11:53:46.065Z,20032.00
2019-04-30T11:54:51.529Z,19456.00
2019-04-30T11:55:46.032Z,18048.00
2019-04-30T11:56:46.017Z,16168.00
2019-04-30T11:57:46.005Z,13860.00
2019-04-30T11:58:45.991Z,12816.00
2019-04-30T11:59:45.972Z,13424.00
2019-04-30T12:00:45.958Z,13564.00
2019-04-30T12:01:45.942Z,11652.00
2019-04-30T12:02:45.926Z,10804.00
2019-04-30T12:03:45.910Z,10916.00
2019-04-30T12:04:45.894Z,10880.00
2019-04-30T12:05:45.880Z,11176.00
2019-04-30T12:06:45.866Z,11228.00
2019-04-30T12:07:45.849Z,11916.00
2019-04-30T12:08:45.833Z,11300.00
2019-04-30T12:09:45.819Z,10488.00
2019-04-30T12:10:45.808Z,10648.00
2019-04-30T12:11:45.789Z,11572.00
2019-04-30T12:12:45.776Z,11100.00
2019-04-30T12:13:45.757Z,10436.00
2019-04-30T12:14:45.743Z,10212.00
2019-04-30T12:15:45.727Z,10952.00
2019-04-30T12:16:45.712Z,10904.00
2019-04-30T12:17:45.696Z,12124.00
2019-04-30T12:18:45.681Z,13600.00
2019-04-30T12:19:45.664Z,13656.00
2019-04-30T12:20:45.650Z,14680.00
2019-04-30T12:21:45.646Z,15644.00
2019-04-30T12:22:45.618Z,15632.00
2019-04-30T12:23:45.604Z,15412.00